createdAt,value
2017-05-15T00:01:36.228Z,16.87
2017-05-15T00:04:04.542Z,16.92
2017-05-15T00:06:33.635Z,16.50
2017-05-15T00:09:02.699Z,17.08
2017-05-15T00:11:31.174Z,17.45
2017-05-15T00:13:59.485Z,16.22
2017-05-15T00:16:28.543Z,15.87
2017-05-15T00:18:56.851Z,15.87
2017-05-15T00:21:25.162Z,14.85
2017-05-15T00:23:53.473Z,15.05
2017-05-15T00:26:21.790Z,14.10
2017-05-15T00:28:50.613Z,15.15
2017-05-15T00:31:18.917Z,13.77
2017-05-15T00:33:47.230Z,12.88
2017-05-15T00:36:15.540Z,12.95
2017-05-15T00:38:43.854Z,13.43
2017-05-15T00:41:12.206Z,12.27
2017-05-15T00:43:40.511Z,12.88
2017-05-15T00:46:09.225Z,13.90
2017-05-15T00:48:37.543Z,13.93
2017-05-15T00:51:06.137Z,13.58
2017-05-15T00:53:34.462Z,13.87
2017-05-15T00:56:02.778Z,13.68
2017-05-15T00:58:31.089Z,12.67
2017-05-15T01:00:59.401Z,13.27
2017-05-15T01:03:27.729Z,12.72
2017-05-15T01:05:56.036Z,13.62
2017-05-15T01:08:24.845Z,13.02
2017-05-15T01:10:53.162Z,14.35
2017-05-15T01:13:21.473Z,14.38
2017-05-15T01:15:49.988Z,14.48
2017-05-15T01:18:18.301Z,15.22
2017-05-15T01:20:46.615Z,14.47
2017-05-15T01:23:14.925Z,14.52
2017-05-15T01:25:43.233Z,13.15
2017-05-15T01:28:11.546Z,14.85
2017-05-15T01:30:39.855Z,14.45
2017-05-15T01:33:08.168Z,14.72
2017-05-15T01:35:36.478Z,14.92
2017-05-15T01:38:04.789Z,14.77
2017-05-15T01:40:33.102Z,15.17
2017-05-15T01:43:01.409Z,14.42
2017-05-15T01:45:29.761Z,13.57
2017-05-15T01:47:58.092Z,13.87
2017-05-15T01:50:26.450Z,14.37
2017-05-15T01:52:55.774Z,12.58
2017-05-15T01:55:24.309Z,13.82
2017-05-15T01:57:52.617Z,13.35
2017-05-15T02:00:20.926Z,14.10
2017-05-15T02:02:49.981Z,13.67
2017-05-15T02:05:18.293Z,13.38
2017-05-15T02:07:46.978Z,13.35
2017-05-15T02:10:15.293Z,14.20
2017-05-15T02:12:43.602Z,14.23
2017-05-15T02:15:11.913Z,14.22
2017-05-15T02:17:40.226Z,13.95
2017-05-15T02:20:09.284Z,14.17
2017-05-15T02:22:37.598Z,13.45
2017-05-15T02:25:05.916Z,15.03
2017-05-15T02:27:34.226Z,14.92
2017-05-15T02:30:03.282Z,13.02
2017-05-15T02:32:31.600Z,14.10
2017-05-15T02:35:00.653Z,13.23
2017-05-15T02:37:28.971Z,13.33
2017-05-15T02:39:58.028Z,13.67
2017-05-15T02:42:26.341Z,13.00
2017-05-15T02:44:54.657Z,13.30
2017-05-15T02:47:22.967Z,12.30
2017-05-15T02:49:51.277Z,13.77
2017-05-15T02:52:20.333Z,13.13
2017-05-15T02:54:49.006Z,12.67
2017-05-15T02:57:17.322Z,12.27
2017-05-15T02:59:45.654Z,13.33
2017-05-15T03:02:13.974Z,14.28
2017-05-15T03:04:42.290Z,12.80
2017-05-15T03:07:10.753Z,13.38
2017-05-15T03:09:39.810Z,13.25
2017-05-15T03:12:08.127Z,14.00
2017-05-15T03:14:36.436Z,13.72
2017-05-15T03:17:04.752Z,12.18
2017-05-15T03:19:33.067Z,11.33
2017-05-15T03:22:02.127Z,12.67
2017-05-15T03:24:30.849Z,12.35
2017-05-15T03:26:59.903Z,12.32
2017-05-15T03:29:28.260Z,12.00
2017-05-15T03:31:56.577Z,12.87
2017-05-15T03:34:24.898Z,12.92
2017-05-15T03:36:53.215Z,11.82
2017-05-15T03:39:24.086Z,13.20
2017-05-15T03:41:52.874Z,12.45
2017-05-15T03:44:21.193Z,12.82
2017-05-15T03:46:49.510Z,12.68
2017-05-15T03:49:17.817Z,12.95
2017-05-15T03:51:46.946Z,13.22
2017-05-15T03:54:15.349Z,12.67
2017-05-15T03:56:43.668Z,13.80
2017-05-15T03:59:11.988Z,13.48
2017-05-15T04:01:40.305Z,12.18
2017-05-15T04:04:08.622Z,12.75
2017-05-15T04:06:36.998Z,12.55
2017-05-15T04:09:06.070Z,13.88
2017-05-15T04:11:34.437Z,13.52
2017-05-15T04:14:02.753Z,12.38
2017-05-15T04:16:31.823Z,13.75
2017-05-15T04:19:00.142Z,14.80
2017-05-15T04:21:29.050Z,13.92
2017-05-15T04:23:57.409Z,14.05
2017-05-15T04:26:25.732Z,12.68
2017-05-15T04:28:54.047Z,12.50
2017-05-15T04:31:23.107Z,13.62
2017-05-15T04:33:51.486Z,13.65
2017-05-15T04:36:19.814Z,13.62
2017-05-15T04:38:48.139Z,13.70
2017-05-15T04:41:16.453Z,13.72
2017-05-15T04:43:45.515Z,14.43
2017-05-15T04:46:13.838Z,15.02
2017-05-15T04:48:42.888Z,14.35
2017-05-15T04:51:11.202Z,13.58
2017-05-15T04:53:40.702Z,12.38
2017-05-15T04:56:09.993Z,13.82
2017-05-15T04:58:38.316Z,14.25
2017-05-15T05:01:06.627Z,15.12
2017-05-15T05:03:34.941Z,15.00
2017-05-15T05:06:04.005Z,15.13
2017-05-15T05:08:32.478Z,14.00
2017-05-15T05:11:04.330Z,13.33
2017-05-15T05:13:32.887Z,14.23
2017-05-15T05:16:04.751Z,15.35
2017-05-15T05:18:33.214Z,12.95
2017-05-15T05:21:21.282Z,12.90
2017-05-15T05:24:01.530Z,13.88
2017-05-15T05:26:52.415Z,14.48
2017-05-15T05:29:43.182Z,13.85
2017-05-15T05:32:23.376Z,12.73
2017-05-15T05:34:58.315Z,13.88
2017-05-15T05:37:38.531Z,13.85
2017-05-15T05:40:23.318Z,13.95
2017-05-15T05:43:04.334Z,12.90
2017-05-15T05:45:32.654Z,13.58
2017-05-15T05:48:01.022Z,14.10
2017-05-15T05:50:29.358Z,13.13
2017-05-15T05:52:59.150Z,13.82
2017-05-15T05:55:54.279Z,13.70
2017-05-15T05:58:23.440Z,13.75
2017-05-15T06:01:13.196Z,14.05
2017-05-15T06:03:53.799Z,15.03
2017-05-15T06:06:34.691Z,14.12
2017-05-15T06:09:15.021Z,15.77
2017-05-15T06:11:55.046Z,15.05
2017-05-15T06:14:35.429Z,16.18
2017-05-15T06:17:18.594Z,16.68
2017-05-15T06:19:46.646Z,19.90
2017-05-15T06:22:26.834Z,24.00
2017-05-15T06:28:03.245Z,20.12
2017-05-15T06:30:32.237Z,16.27
2017-05-15T06:33:00.561Z,16.80
2017-05-15T06:35:29.616Z,17.90
2017-05-15T06:38:09.924Z,17.33
2017-05-15T06:41:04.946Z,17.87
2017-05-15T06:43:33.264Z,17.88
2017-05-15T06:46:01.585Z,18.20
2017-05-15T06:48:29.906Z,17.28
2017-05-15T06:50:58.226Z,16.40
2017-05-15T06:53:29.421Z,15.83
2017-05-15T06:55:57.997Z,16.42
2017-05-15T06:58:26.474Z,15.55
2017-05-15T07:00:54.853Z,15.67
2017-05-15T07:03:23.174Z,15.23
2017-05-15T07:05:51.522Z,13.93
2017-05-15T07:08:19.737Z,13.28
2017-05-15T07:10:48.058Z,13.57
2017-05-15T07:13:16.373Z,13.87
2017-05-15T07:15:44.874Z,13.68
2017-05-15T07:18:13.779Z,12.15
2017-05-15T07:20:42.838Z,10.90
2017-05-15T07:23:11.205Z,11.37
2017-05-15T07:25:39.905Z,10.42
2017-05-15T07:28:08.228Z,10.23
2017-05-15T07:30:37.295Z,9.97
2017-05-15T07:33:05.610Z,9.40
2017-05-15T07:35:33.931Z,8.12
2017-05-15T07:38:02.281Z,8.82
2017-05-15T07:40:30.587Z,7.88
2017-05-15T07:42:58.902Z,8.72
2017-05-15T07:45:27.950Z,7.75
2017-05-15T07:47:56.301Z,9.63
2017-05-15T07:50:24.622Z,10.17
2017-05-15T07:52:52.936Z,9.52
2017-05-15T07:55:22.379Z,8.97
2017-05-15T07:57:50.903Z,8.47
2017-05-15T08:00:19.990Z,8.92
2017-05-15T08:02:48.515Z,9.08
2017-05-15T08:05:16.859Z,8.55
2017-05-15T08:07:45.191Z,8.35
2017-05-15T08:10:13.501Z,8.75
2017-05-15T08:12:41.853Z,8.42
2017-05-15T08:15:10.926Z,9.50
2017-05-15T08:17:39.243Z,9.45
2017-05-15T08:20:07.557Z,9.27
2017-05-15T08:22:35.866Z,9.23
2017-05-15T08:25:04.181Z,8.88
2017-05-15T08:27:32.533Z,10.63
2017-05-15T08:30:01.598Z,10.87
2017-05-15T08:32:29.985Z,11.12
2017-05-15T08:34:58.300Z,11.75
2017-05-15T08:37:27.546Z,12.07
2017-05-15T08:39:55.858Z,12.90
2017-05-15T08:42:24.200Z,11.75
2017-05-15T08:44:52.534Z,11.10
2017-05-15T08:47:23.106Z,11.65
2017-05-15T08:49:51.421Z,12.65
2017-05-15T08:52:19.738Z,11.97
2017-05-15T08:54:48.204Z,11.43
2017-05-15T08:57:17.258Z,11.00
2017-05-15T08:59:45.586Z,9.83
2017-05-15T09:02:13.899Z,9.72
2017-05-15T09:04:42.254Z,11.05
2017-05-15T09:07:10.583Z,10.92
2017-05-15T09:09:39.589Z,10.45
2017-05-15T09:12:07.898Z,9.93
2017-05-15T09:14:36.205Z,11.13
2017-05-15T09:17:04.518Z,9.43
2017-05-15T09:19:32.837Z,10.80
2017-05-15T09:22:01.274Z,10.32
2017-05-15T09:24:29.590Z,10.68
2017-05-15T09:26:57.914Z,10.78
2017-05-15T09:29:26.228Z,11.00
2017-05-15T09:31:55.613Z,10.72
2017-05-15T09:34:23.936Z,10.80
2017-05-15T09:36:52.270Z,11.47
2017-05-15T09:39:20.591Z,11.97
2017-05-15T09:41:48.909Z,11.58
2017-05-15T09:44:17.218Z,10.60
2017-05-15T09:46:46.284Z,10.80
2017-05-15T09:49:14.607Z,10.40
2017-05-15T09:51:43.011Z,10.87
2017-05-15T09:54:12.527Z,9.12
2017-05-15T09:56:40.837Z,10.53
2017-05-15T09:59:09.157Z,10.65
2017-05-15T10:01:37.472Z,9.75
2017-05-15T10:04:05.785Z,9.05
2017-05-15T10:06:34.837Z,9.20
2017-05-15T10:09:03.182Z,8.20
2017-05-15T10:11:31.982Z,7.45
2017-05-15T10:14:00.289Z,6.63
2017-05-15T10:16:28.597Z,7.45
2017-05-15T10:18:57.650Z,7.33
2017-05-15T10:21:25.991Z,6.30
2017-05-15T10:23:55.047Z,6.73
2017-05-15T10:26:23.356Z,6.98
2017-05-15T10:28:52.758Z,5.82
2017-05-15T10:31:33.593Z,5.60
2017-05-15T10:34:02.630Z,5.18
2017-05-15T10:36:31.680Z,5.65
2017-05-15T10:38:59.990Z,5.18
2017-05-15T10:41:29.055Z,5.62
2017-05-15T10:43:57.361Z,4.43
2017-05-15T10:46:25.685Z,3.58
2017-05-15T10:48:54.742Z,3.37
2017-05-15T10:51:23.666Z,3.05
2017-05-15T10:53:52.722Z,3.10
2017-05-15T10:56:21.904Z,3.35
2017-05-15T10:58:50.214Z,4.10
2017-05-15T11:01:18.581Z,2.92
2017-05-15T11:03:46.899Z,2.88
2017-05-15T11:06:15.957Z,3.38
2017-05-15T11:08:44.473Z,2.68
2017-05-15T11:11:15.870Z,3.02
2017-05-15T11:13:44.258Z,3.22
2017-05-15T11:16:12.574Z,4.00
2017-05-15T11:18:40.895Z,4.42
2017-05-15T11:21:09.199Z,3.16
2017-05-15T11:23:37.533Z,3.00
2017-05-15T11:26:06.573Z,3.12
2017-05-15T11:28:35.026Z,3.46
2017-05-15T11:31:03.344Z,3.26
2017-05-15T11:33:31.674Z,2.94
2017-05-15T11:35:59.990Z,2.90
2017-05-15T11:38:28.521Z,2.96
2017-05-15T11:40:57.591Z,2.54
2017-05-15T11:43:25.963Z,2.82
2017-05-15T11:45:54.265Z,3.40
2017-05-15T11:48:23.314Z,2.60
2017-05-15T11:50:51.621Z,3.14
2017-05-15T11:53:19.935Z,2.54
2017-05-15T11:55:48.254Z,2.72
2017-05-15T11:58:16.928Z,2.52
2017-05-15T12:00:45.977Z,2.16
2017-05-15T12:03:15.033Z,3.08
2017-05-15T12:05:43.346Z,2.90
2017-05-15T12:08:12.399Z,2.02
2017-05-15T12:10:40.709Z,1.80
2017-05-15T12:13:09.362Z,2.06
2017-05-15T12:15:37.673Z,2.50
2017-05-15T12:18:06.003Z,2.04
2017-05-15T12:20:34.308Z,2.30
2017-05-15T12:23:02.613Z,2.20
2017-05-15T12:25:31.669Z,2.02
2017-05-15T12:28:00.026Z,2.04
2017-05-15T12:30:28.391Z,2.48
2017-05-15T12:32:56.750Z,2.38
2017-05-15T12:35:25.818Z,2.38
2017-05-15T12:37:54.419Z,2.82
2017-05-15T12:40:22.734Z,3.24
2017-05-15T12:42:51.052Z,3.14
2017-05-15T12:45:19.361Z,3.02
2017-05-15T12:47:48.430Z,3.40
2017-05-15T12:50:16.742Z,4.08
2017-05-15T12:52:45.805Z,3.50
2017-05-15T12:55:14.110Z,2.94
2017-05-15T12:57:43.570Z,3.66
2017-05-15T13:00:11.883Z,3.22
2017-05-15T13:02:40.198Z,3.46
2017-05-15T13:05:08.508Z,3.30
2017-05-15T13:07:36.818Z,3.74
2017-05-15T13:10:05.133Z,4.70
2017-05-15T13:12:34.086Z,3.98
2017-05-15T13:15:02.404Z,3.80
2017-05-15T13:17:30.707Z,4.22
2017-05-15T13:19:59.017Z,3.70
2017-05-15T13:22:27.330Z,3.78
2017-05-15T13:24:55.681Z,3.92
2017-05-15T13:27:23.989Z,3.42
2017-05-15T13:29:52.522Z,3.42
2017-05-15T13:32:20.837Z,4.18
2017-05-15T13:34:49.902Z,4.00
2017-05-15T13:37:18.213Z,3.60
2017-05-15T13:39:46.526Z,3.10
2017-05-15T13:42:14.837Z,3.36
2017-05-15T13:44:43.149Z,3.10
2017-05-15T13:47:11.454Z,3.10
2017-05-15T13:49:39.762Z,2.92
2017-05-15T13:52:08.078Z,2.94
2017-05-15T13:54:36.390Z,2.64
2017-05-15T13:57:04.713Z,2.28
2017-05-15T13:59:33.687Z,2.50
2017-05-15T14:02:02.009Z,2.20
2017-05-15T14:04:30.624Z,1.80
2017-05-15T14:06:58.941Z,1.96
2017-05-15T14:09:27.249Z,2.08
2017-05-15T14:11:56.297Z,2.70
2017-05-15T14:14:24.605Z,2.90
2017-05-15T14:16:53.655Z,2.62
2017-05-15T14:19:22.346Z,2.08
2017-05-15T14:21:51.091Z,2.36
2017-05-15T14:24:20.139Z,2.10
2017-05-15T14:26:48.492Z,1.92
2017-05-15T14:29:16.785Z,2.28
2017-05-15T14:31:45.096Z,2.20
2017-05-15T14:34:13.402Z,2.10
2017-05-15T14:36:41.711Z,1.86
2017-05-15T14:39:10.029Z,1.80
2017-05-15T14:41:38.337Z,2.20
2017-05-15T14:44:06.686Z,1.80
2017-05-15T14:46:35.053Z,2.42
2017-05-15T14:49:03.361Z,1.96
2017-05-15T14:51:32.415Z,2.00
2017-05-15T14:54:00.719Z,1.80
2017-05-15T14:56:29.033Z,2.20
2017-05-15T14:58:57.490Z,1.60
2017-05-15T15:01:26.540Z,1.76
2017-05-15T15:03:54.850Z,2.18
2017-05-15T15:06:23.163Z,2.38
2017-05-15T15:08:51.473Z,2.00
2017-05-15T15:11:19.780Z,1.88
2017-05-15T15:13:48.086Z,2.12
2017-05-15T15:16:17.665Z,2.42
2017-05-15T15:18:46.006Z,2.64
2017-05-15T15:21:14.309Z,2.80
2017-05-15T15:23:42.743Z,2.44
2017-05-15T15:26:11.353Z,2.32
2017-05-15T15:28:39.662Z,2.02
2017-05-15T15:31:08.082Z,2.22
2017-05-15T15:33:36.390Z,2.18
2017-05-15T15:36:04.750Z,2.16
2017-05-15T15:38:33.065Z,2.46
2017-05-15T15:41:01.375Z,2.60
2017-05-15T15:43:30.474Z,2.32
2017-05-15T15:45:59.519Z,2.40
2017-05-15T15:48:27.831Z,2.14
2017-05-15T15:50:56.369Z,3.04
2017-05-15T15:53:24.681Z,2.52
2017-05-15T15:55:52.985Z,2.60
2017-05-15T15:58:22.088Z,2.54
2017-05-15T16:00:51.140Z,2.04
2017-05-15T16:03:19.905Z,2.50
2017-05-15T16:05:48.219Z,2.60
2017-05-15T16:08:16.532Z,2.80
2017-05-15T16:10:46.521Z,2.40
2017-05-15T16:13:14.832Z,2.50
2017-05-15T16:15:43.141Z,2.86
2017-05-15T16:18:11.491Z,2.90
2017-05-15T16:20:39.806Z,2.30
2017-05-15T16:23:08.438Z,2.32
2017-05-15T16:25:37.479Z,2.56
2017-05-15T16:28:05.994Z,2.56
2017-05-15T16:30:37.342Z,2.40
2017-05-15T16:33:05.657Z,2.92
2017-05-15T16:35:33.974Z,2.18
2017-05-15T16:38:02.354Z,2.70
2017-05-15T16:40:30.663Z,2.36
2017-05-15T16:43:00.158Z,2.68
2017-05-15T16:45:28.461Z,2.38
2017-05-15T16:47:57.501Z,2.14
2017-05-15T16:50:26.455Z,2.06
2017-05-15T16:52:55.503Z,2.54
2017-05-15T16:55:23.814Z,2.32
2017-05-15T16:57:52.911Z,2.02
2017-05-15T17:00:22.075Z,1.74
2017-05-15T17:02:51.275Z,1.66
2017-05-15T17:05:19.658Z,2.10
2017-05-15T17:07:48.566Z,1.72
2017-05-15T17:10:16.882Z,1.58
2017-05-15T17:12:47.421Z,1.70
2017-05-15T17:15:15.862Z,2.02
2017-05-15T17:17:44.917Z,1.52
2017-05-15T17:20:13.282Z,1.60
2017-05-15T17:22:41.586Z,1.70
2017-05-15T17:25:14.110Z,1.74
2017-05-15T17:27:42.630Z,1.80
2017-05-15T17:30:10.952Z,1.40
2017-05-15T17:32:40.054Z,1.22
2017-05-15T17:35:09.114Z,1.22
2017-05-15T17:37:37.465Z,1.22
2017-05-15T17:42:26.077Z,1.48
2017-05-15T17:44:55.038Z,2.18
2017-05-15T17:47:23.350Z,1.64
2017-05-15T17:49:51.674Z,1.96
2017-05-15T17:52:19.986Z,2.58
2017-05-15T17:54:48.317Z,2.52
2017-05-15T17:57:16.637Z,2.42
2017-05-15T17:59:44.949Z,2.66
2017-05-15T18:02:14.012Z,1.98
2017-05-15T18:04:42.359Z,2.04
2017-05-15T18:07:10.675Z,2.10
2017-05-15T18:09:38.983Z,1.72
2017-05-15T18:12:07.301Z,1.40
2017-05-15T18:14:35.668Z,1.50
2017-05-15T18:17:03.985Z,1.36
2017-05-15T18:19:32.300Z,1.86
2017-05-15T18:22:01.346Z,1.86
2017-05-15T18:24:29.674Z,2.00
2017-05-15T18:26:58.731Z,1.90
2017-05-15T18:29:27.756Z,1.38
2017-05-15T18:31:56.802Z,1.44
2017-05-15T18:34:25.149Z,1.38
2017-05-15T18:36:53.612Z,1.25
2017-05-15T18:39:22.670Z,1.37
2017-05-15T18:41:50.985Z,1.28
2017-05-15T18:44:20.037Z,1.23
2017-05-15T18:46:48.359Z,1.60
2017-05-15T18:49:17.411Z,1.20
2017-05-15T18:51:46.032Z,1.65
2017-05-15T18:54:15.085Z,1.30
2017-05-15T18:56:43.471Z,1.20
2017-05-15T18:59:12.192Z,1.30
2017-05-15T19:01:40.512Z,1.40
2017-05-15T19:04:08.842Z,1.62
2017-05-15T19:06:37.373Z,1.30
2017-05-15T19:09:07.090Z,1.45
2017-05-15T19:11:35.397Z,1.28
2017-05-15T19:14:03.722Z,1.35
2017-05-15T19:16:32.041Z,1.32
2017-05-15T19:19:00.357Z,1.30
2017-05-15T19:21:29.977Z,1.28
2017-05-15T19:24:00.288Z,1.22
2017-05-15T19:26:28.602Z,1.50
2017-05-15T19:28:56.905Z,1.67
2017-05-15T19:31:25.206Z,1.08
2017-05-15T19:33:53.906Z,1.45
2017-05-15T19:36:22.215Z,1.48
2017-05-15T19:38:50.530Z,1.40
2017-05-15T19:41:18.837Z,1.33
2017-05-15T19:43:47.142Z,1.75
2017-05-15T19:46:15.454Z,1.52
2017-05-15T19:48:43.776Z,1.40
2017-05-15T19:51:12.131Z,1.52
2017-05-15T19:53:40.428Z,1.77
2017-05-15T19:56:08.781Z,3.62
2017-05-15T19:58:37.090Z,1.95
2017-05-15T20:01:06.117Z,1.48
2017-05-15T20:03:34.421Z,1.32
2017-05-15T20:06:02.731Z,1.60
2017-05-15T20:08:31.034Z,1.60
2017-05-15T20:11:01.812Z,1.67
2017-05-15T20:13:30.126Z,1.75
2017-05-15T20:15:58.434Z,1.57
2017-05-15T20:18:26.753Z,1.57
2017-05-15T20:20:55.061Z,1.70
2017-05-15T20:23:23.376Z,1.40
2017-05-15T20:25:51.694Z,1.90
2017-05-15T20:28:20.006Z,1.72
2017-05-15T20:30:49.503Z,1.60
2017-05-15T20:33:17.821Z,1.77
2017-05-15T20:35:46.126Z,1.78
2017-05-15T20:38:14.455Z,1.80
2017-05-15T20:40:43.501Z,1.68
2017-05-15T20:43:12.115Z,1.68
2017-05-15T20:45:40.428Z,1.63
2017-05-15T20:48:08.749Z,1.68
2017-05-15T20:50:37.058Z,1.53
2017-05-15T20:53:06.155Z,1.83
2017-05-15T20:55:34.615Z,1.60
2017-05-15T20:58:02.925Z,1.70
2017-05-15T21:00:31.976Z,2.12
2017-05-15T21:03:00.281Z,1.78
2017-05-15T21:05:30.193Z,1.70
2017-05-15T21:07:58.507Z,1.90
2017-05-15T21:10:27.103Z,1.98
2017-05-15T21:12:55.410Z,2.65
2017-05-15T21:15:23.717Z,1.75
2017-05-15T21:17:52.817Z,1.85
2017-05-15T21:20:21.861Z,2.10
2017-05-15T21:22:50.172Z,2.07
2017-05-15T21:25:18.479Z,1.83
2017-05-15T21:27:47.530Z,2.00
2017-05-15T21:30:17.318Z,2.10
2017-05-15T21:32:45.627Z,2.00
2017-05-15T21:35:13.934Z,1.82
2017-05-15T21:37:42.984Z,2.10
2017-05-15T21:40:11.290Z,2.12
2017-05-15T21:42:39.607Z,1.88
2017-05-15T21:45:07.930Z,1.97
2017-05-15T21:47:36.259Z,1.97
2017-05-15T21:50:04.607Z,2.28
2017-05-15T21:52:32.918Z,2.25
2017-05-15T21:55:01.227Z,2.13
2017-05-15T21:57:29.534Z,1.70
2017-05-15T21:59:58.046Z,2.17
2017-05-15T22:02:27.086Z,2.10
2017-05-15T22:04:55.393Z,1.95
2017-05-15T22:07:23.705Z,2.22
2017-05-15T22:09:52.417Z,1.90
2017-05-15T22:12:20.894Z,2.30
2017-05-15T22:14:49.198Z,1.85
2017-05-15T22:17:17.510Z,1.95
2017-05-15T22:19:46.555Z,2.30
2017-05-15T22:22:14.862Z,2.10
2017-05-15T22:24:43.176Z,2.08
2017-05-15T22:27:11.483Z,1.93
2017-05-15T22:29:40.167Z,2.15
2017-05-15T22:32:08.477Z,2.23
2017-05-15T22:34:36.787Z,1.88
2017-05-15T22:37:05.829Z,2.25
2017-05-15T22:39:34.546Z,2.20
2017-05-15T22:42:02.862Z,2.20
2017-05-15T22:44:31.172Z,2.50
2017-05-15T22:46:59.481Z,2.58
2017-05-15T22:49:27.786Z,2.25
2017-05-15T22:51:56.102Z,2.13
2017-05-15T22:54:24.415Z,2.40
2017-05-15T22:56:52.885Z,2.20
2017-05-15T22:59:21.193Z,2.37
2017-05-15T23:01:50.249Z,2.60
2017-05-15T23:04:18.593Z,2.47
2017-05-15T23:06:46.900Z,2.98
2017-05-15T23:09:15.210Z,2.45
2017-05-15T23:11:43.517Z,2.28
2017-05-15T23:14:11.822Z,2.67
2017-05-15T23:16:40.125Z,2.33
2017-05-15T23:19:08.430Z,2.52
2017-05-15T23:21:37.478Z,2.40
2017-05-15T23:24:05.961Z,2.50
2017-05-15T23:26:34.266Z,2.10
2017-05-15T23:29:02.570Z,2.60
2017-05-15T23:31:31.798Z,2.67
2017-05-15T23:34:00.104Z,2.05
2017-05-15T23:36:28.410Z,2.25
2017-05-15T23:38:57.449Z,2.13
2017-05-15T23:41:25.751Z,2.90
2017-05-15T23:43:54.057Z,2.35
2017-05-15T23:46:22.366Z,2.48
2017-05-15T23:48:50.675Z,2.05
2017-05-15T23:51:19.001Z,2.30
2017-05-15T23:53:48.101Z,2.40
2017-05-15T23:56:17.146Z,2.37
2017-05-15T23:58:46.042Z,2.18
